createdAt,value
2023-01-24T00:00:21.867Z,29.00
2023-01-24T00:05:24.081Z,28.30
2023-01-24T00:10:26.351Z,28.30
2023-01-24T00:15:28.463Z,28.40
2023-01-24T00:20:30.643Z,28.80
2023-01-24T00:25:32.874Z,28.50
2023-01-24T00:30:35.033Z,28.30
2023-01-24T00:35:37.162Z,28.50
2023-01-24T00:40:39.376Z,28.10
2023-01-24T00:45:44.535Z,28.90
2023-01-24T00:50:46.604Z,28.30
2023-01-24T00:55:49.978Z,28.80
2023-01-24T01:00:56.415Z,28.90
2023-01-24T01:06:07.191Z,28.70
2023-01-24T01:11:09.516Z,28.80
2023-01-24T01:16:14.098Z,28.90
2023-01-24T01:21:18.724Z,28.60
2023-01-24T01:26:22.678Z,28.30
2023-01-24T01:31:24.891Z,28.40
2023-01-24T01:36:27.025Z,28.90
2023-01-24T01:41:29.333Z,28.60
2023-01-24T01:46:40.508Z,28.90
2023-01-24T01:51:49.369Z,28.80
2023-01-24T01:57:02.071Z,28.90
2023-01-24T02:02:06.689Z,28.70
2023-01-24T02:07:17.474Z,28.40
2023-01-24T02:12:39.420Z,28.90
2023-01-24T02:17:42.121Z,28.90
2023-01-24T02:23:05.348Z,28.80
2023-01-24T02:28:09.007Z,28.80
2023-01-24T02:33:20.288Z,28.40
2023-01-24T02:38:27.708Z,28.80
2023-01-24T02:43:31.685Z,28.80
2023-01-24T02:48:33.821Z,28.90
2023-01-24T02:53:36.029Z,28.40
2023-01-24T02:58:38.129Z,29.00
2023-01-24T03:03:40.964Z,28.60
2023-01-24T03:08:44.037Z,28.60
2023-01-24T03:19:28.306Z,28.90
2023-01-24T03:24:50.691Z,28.90
2023-01-24T03:30:11.831Z,28.90
2023-01-24T03:35:15.407Z,29.10
2023-01-24T03:40:17.806Z,29.20
2023-01-24T03:45:26.426Z,28.60
2023-01-24T03:50:53.043Z,28.90
2023-01-24T03:56:01.948Z,28.60
2023-01-24T04:01:05.419Z,28.90
2023-01-24T04:06:12.537Z,28.50
2023-01-24T04:11:14.681Z,28.80
2023-01-24T04:16:17.131Z,29.00
2023-01-24T04:21:19.775Z,29.00
2023-01-24T04:26:22.530Z,29.00
2023-01-24T04:31:25.945Z,29.10
2023-01-24T04:36:30.996Z,29.00
2023-01-24T04:41:33.781Z,29.00
2023-01-24T04:46:37.607Z,28.80
2023-01-24T04:51:42.857Z,29.30
2023-01-24T04:56:45.751Z,29.40
2023-01-24T05:01:47.983Z,28.80
2023-01-24T05:06:51.210Z,29.10
2023-01-24T05:11:53.508Z,28.90
2023-01-24T05:16:55.899Z,29.00
2023-01-24T05:21:58.445Z,28.90
2023-01-24T05:27:01.015Z,28.90
2023-01-24T05:32:04.009Z,28.80
2023-01-24T05:37:06.517Z,28.80
2023-01-24T05:42:09.881Z,28.90
2023-01-24T05:47:14.403Z,28.20
2023-01-24T05:52:22.062Z,29.00
2023-01-24T05:57:25.660Z,29.40
2023-01-24T06:02:34.962Z,28.80
2023-01-24T06:07:37.193Z,28.80
2023-01-24T06:12:39.358Z,28.70
2023-01-24T06:17:41.536Z,28.50
2023-01-24T06:22:56.879Z,28.40
2023-01-24T06:27:59.889Z,28.10
2023-01-24T06:33:10.575Z,28.60
2023-01-24T06:38:39.183Z,28.30
2023-01-24T06:43:41.718Z,28.70
2023-01-24T06:48:45.233Z,29.30
2023-01-24T06:53:47.323Z,28.60
2023-01-24T06:58:49.441Z,28.40
2023-01-24T07:03:51.579Z,28.70
2023-01-24T07:08:53.938Z,28.80
2023-01-24T07:13:56.005Z,28.90
2023-01-24T07:18:58.369Z,28.50
2023-01-24T07:24:00.758Z,28.50
2023-01-24T07:29:02.849Z,28.60
2023-01-24T07:34:05.164Z,28.90
2023-01-24T07:39:07.299Z,28.70
2023-01-24T07:44:09.752Z,28.70
2023-01-24T07:49:11.772Z,28.70
2023-01-24T07:54:13.901Z,28.80
2023-01-24T07:59:16.069Z,28.90
2023-01-24T08:04:18.280Z,28.60
2023-01-24T08:09:20.473Z,29.00
2023-01-24T08:19:49.754Z,28.70
2023-01-24T08:24:47.478Z,28.60
2023-01-24T08:29:49.671Z,29.00
2023-01-24T08:34:51.839Z,28.90
2023-01-24T08:39:53.953Z,28.60
2023-01-24T08:44:56.073Z,28.00
2023-01-24T08:49:58.265Z,28.80
2023-01-24T08:55:00.410Z,28.50
2023-01-24T09:00:02.762Z,28.90
2023-01-24T09:05:07.197Z,28.60
2023-01-24T09:10:09.949Z,28.80
2023-01-24T09:20:14.951Z,28.90
2023-01-24T09:25:17.086Z,28.60
2023-01-24T09:30:21.547Z,28.90
2023-01-24T09:35:23.808Z,28.90
2023-01-24T09:40:30.873Z,28.90
2023-01-24T09:45:50.520Z,28.30
2023-01-24T09:51:00.867Z,28.80
2023-01-24T09:56:05.348Z,28.40
2023-01-24T10:01:15.637Z,28.20
2023-01-24T10:06:29.505Z,28.60
2023-01-24T10:12:02.000Z,29.50
2023-01-24T10:17:16.702Z,28.90
2023-01-24T10:22:54.834Z,28.50
2023-01-24T10:28:00.303Z,28.50
2023-01-24T10:33:11.099Z,28.50
2023-01-24T10:38:17.063Z,29.40
2023-01-24T10:43:23.373Z,28.60
2023-01-24T10:48:41.263Z,29.00
2023-01-24T10:53:43.659Z,28.80
2023-01-24T10:58:56.518Z,28.70
2023-01-24T11:03:58.750Z,27.90
2023-01-24T11:09:21.459Z,28.60
2023-01-24T11:14:36.988Z,29.10
2023-01-24T11:19:40.900Z,28.40
2023-01-24T11:24:45.141Z,28.40
2023-01-24T11:30:16.121Z,28.20
2023-01-24T11:35:27.506Z,28.00
2023-01-24T11:40:29.615Z,28.30
2023-01-24T11:45:37.776Z,28.40
2023-01-24T11:51:13.173Z,28.30
2023-01-24T11:56:40.946Z,27.90
2023-01-24T12:02:10.729Z,28.30
2023-01-24T12:07:18.269Z,28.90
2023-01-24T12:12:47.199Z,27.90
2023-01-24T12:18:14.980Z,27.70
2023-01-24T12:23:28.825Z,28.10
2023-01-24T12:28:52.068Z,28.40
2023-01-24T12:34:04.676Z,28.10
2023-01-24T12:39:20.424Z,27.50
2023-01-24T12:44:33.508Z,27.90
2023-01-24T12:49:54.055Z,27.20
2023-01-24T12:55:17.178Z,27.90
2023-01-24T13:00:25.333Z,27.50
2023-01-24T13:05:37.424Z,27.80
2023-01-24T13:10:44.976Z,27.60
2023-01-24T13:15:55.856Z,27.70
2023-01-24T13:21:03.877Z,28.20
2023-01-24T13:26:27.031Z,26.80
2023-01-24T13:31:30.591Z,28.10
2023-01-24T13:36:36.068Z,26.70
2023-01-24T13:41:39.592Z,26.90
2023-01-24T13:46:45.163Z,27.20
2023-01-24T13:51:49.841Z,27.10
2023-01-24T13:57:06.415Z,27.00
2023-01-24T14:02:37.731Z,26.80
2023-01-24T14:07:41.644Z,27.40
2023-01-24T14:12:54.666Z,27.00
2023-01-24T14:17:57.435Z,27.90
2023-01-24T14:23:03.624Z,27.10
2023-01-24T14:28:19.920Z,27.50
2023-01-24T14:33:54.948Z,27.80
2023-01-24T14:39:24.119Z,27.00
2023-01-24T14:44:38.046Z,27.50
2023-01-24T14:49:52.455Z,27.40
2023-01-24T14:55:01.418Z,26.60
2023-01-24T15:00:13.134Z,26.90
2023-01-24T15:05:36.947Z,26.80
2023-01-24T15:10:43.412Z,26.50
2023-01-24T15:15:46.485Z,26.80
2023-01-24T15:20:49.304Z,26.40
2023-01-24T15:25:51.446Z,26.60
2023-01-24T15:31:01.517Z,26.90
2023-01-24T15:36:03.948Z,27.00
2023-01-24T15:41:11.648Z,27.00
2023-01-24T15:46:41.351Z,27.70
2023-01-24T15:51:44.653Z,26.90
2023-01-24T15:57:00.735Z,27.10
2023-01-24T16:02:03.258Z,27.20
2023-01-24T16:07:05.403Z,27.20
2023-01-24T16:12:13.177Z,27.00
2023-01-24T16:17:18.152Z,27.40
2023-01-24T16:22:20.394Z,27.30
2023-01-24T16:27:22.632Z,27.30
2023-01-24T16:32:24.886Z,27.30
2023-01-24T16:37:27.085Z,27.40
2023-01-24T16:42:29.305Z,27.30
2023-01-24T16:47:31.468Z,27.10
2023-01-24T16:52:33.612Z,26.70
2023-01-24T16:57:35.744Z,27.10
2023-01-24T17:02:38.014Z,27.20
2023-01-24T17:07:40.283Z,27.00
2023-01-24T17:12:42.526Z,27.20
2023-01-24T17:17:44.663Z,27.40
2023-01-24T17:22:46.743Z,27.40
2023-01-24T17:27:48.852Z,27.40
2023-01-24T17:32:51.077Z,27.10
2023-01-24T17:37:53.240Z,27.50
2023-01-24T17:42:55.374Z,27.50
2023-01-24T17:47:57.647Z,27.50
2023-01-24T17:52:59.785Z,27.50
2023-01-24T17:58:01.999Z,27.30
2023-01-24T18:03:05.095Z,27.50
2023-01-24T18:08:07.949Z,27.40
2023-01-24T18:13:10.179Z,27.90
2023-01-24T18:18:13.343Z,27.40
2023-01-24T18:23:15.436Z,27.30
2023-01-24T18:28:17.625Z,27.00
2023-01-24T18:33:19.860Z,27.40
2023-01-24T18:38:22.065Z,27.30
2023-01-24T18:43:24.262Z,26.70
2023-01-24T18:48:26.454Z,27.30
2023-01-24T18:53:28.640Z,27.10
2023-01-24T18:58:32.380Z,27.20
2023-01-24T19:03:34.519Z,27.10
2023-01-24T19:08:41.673Z,26.70
2023-01-24T19:13:48.139Z,27.40
2023-01-24T19:18:51.629Z,26.70
2023-01-24T19:23:53.866Z,27.20
2023-01-24T19:28:57.692Z,27.40
2023-01-24T19:34:00.018Z,28.00
2023-01-24T19:39:02.617Z,27.80
2023-01-24T19:44:21.196Z,27.40
2023-01-24T19:49:23.661Z,27.50
2023-01-24T19:54:25.761Z,27.20
2023-01-24T19:59:28.663Z,27.20
2023-01-24T20:04:38.208Z,27.20
2023-01-24T20:09:43.563Z,27.50
2023-01-24T20:14:45.666Z,27.40
2023-01-24T20:19:59.803Z,27.20
2023-01-24T20:25:17.467Z,27.40
2023-01-24T20:30:21.453Z,27.20
2023-01-24T20:35:23.639Z,27.00
2023-01-24T20:40:25.855Z,27.40
2023-01-24T20:45:28.990Z,27.50
2023-01-24T20:50:31.099Z,27.50
2023-01-24T20:55:33.312Z,27.40
2023-01-24T21:00:36.086Z,27.00
2023-01-24T21:05:38.230Z,27.30
2023-01-24T21:10:48.821Z,27.70
2023-01-24T21:15:51.044Z,27.30
2023-01-24T21:20:57.600Z,27.70
2023-01-24T21:26:08.391Z,27.70
2023-01-24T21:31:16.782Z,28.60
2023-01-24T21:36:20.993Z,27.10
2023-01-24T21:41:42.270Z,27.60
2023-01-24T21:46:44.545Z,27.70
2023-01-24T21:51:48.952Z,27.80
2023-01-24T21:57:30.781Z,28.40
2023-01-24T22:02:35.634Z,28.70
2023-01-24T22:07:37.876Z,27.90
2023-01-24T22:12:40.137Z,28.10
2023-01-24T22:17:42.457Z,27.70
2023-01-24T22:22:53.740Z,27.50
2023-01-24T22:27:56.481Z,28.10
2023-01-24T22:33:00.881Z,28.10
2023-01-24T22:38:03.092Z,27.90
2023-01-24T22:43:05.257Z,28.00
2023-01-24T22:48:17.116Z,28.10
2023-01-24T22:53:19.263Z,28.10
2023-01-24T22:58:21.375Z,28.70
2023-01-24T23:03:23.432Z,27.90
2023-01-24T23:08:25.578Z,28.30
2023-01-24T23:13:46.157Z,28.20
2023-01-24T23:19:08.731Z,27.90
2023-01-24T23:24:10.883Z,27.90
2023-01-24T23:29:12.943Z,28.10
2023-01-24T23:34:35.995Z,27.70
2023-01-24T23:44:40.683Z,28.20
2023-01-24T23:49:44.043Z,28.30
2023-01-24T23:54:46.537Z,28.40
2023-01-24T23:59:48.535Z,27.50
